createdAt,value
2023-02-17T00:02:28.907Z,101459.47
2023-02-17T00:06:32.808Z,101460.09
2023-02-17T00:10:36.992Z,101468.00
2023-02-17T00:14:40.216Z,101468.00
2023-02-17T00:18:43.081Z,101474.50
2023-02-17T00:22:46.336Z,101471.78
2023-02-17T00:26:50.990Z,101470.50
2023-02-17T00:30:53.828Z,101465.28
2023-02-17T00:34:58.407Z,101461.53
2023-02-17T00:39:01.352Z,101454.84
2023-02-17T00:43:05.818Z,101456.72
2023-02-17T00:47:08.940Z,101445.03
2023-02-17T00:51:12.403Z,101442.50
2023-02-17T00:55:15.269Z,101437.47
2023-02-17T00:59:19.486Z,101435.81
2023-02-17T01:03:22.363Z,101449.41
2023-02-17T01:07:27.535Z,101438.75
2023-02-17T01:11:32.828Z,101434.97
2023-02-17T01:15:40.035Z,101431.44
2023-02-17T01:19:42.805Z,101432.47
2023-02-17T01:23:45.616Z,101437.91
2023-02-17T01:27:48.428Z,101437.69
2023-02-17T01:31:52.658Z,101436.81
2023-02-17T01:35:55.469Z,101431.16
2023-02-17T01:39:58.279Z,101435.53
2023-02-17T01:44:10.444Z,101422.78
2023-02-17T01:48:18.190Z,101415.91
2023-02-17T01:52:25.729Z,101405.63
2023-02-17T01:56:30.856Z,101378.69
2023-02-17T02:00:36.870Z,101363.44
2023-02-17T02:04:44.245Z,101357.13
2023-02-17T02:08:53.065Z,101355.06
2023-02-17T02:12:56.820Z,101348.78
2023-02-17T02:17:09.849Z,101368.41
2023-02-17T02:21:59.505Z,101367.13
2023-02-17T02:26:33.517Z,101374.84
2023-02-17T02:31:02.538Z,101375.22
2023-02-17T02:35:10.466Z,101387.16
2023-02-17T02:39:17.050Z,101371.47
2023-02-17T02:43:20.242Z,101353.88
2023-02-17T02:47:52.405Z,101354.47
2023-02-17T02:52:10.491Z,101346.31
2023-02-17T02:56:22.018Z,101341.72
2023-02-17T03:00:33.977Z,101359.69
2023-02-17T03:04:40.307Z,101339.63
2023-02-17T03:08:53.639Z,101342.72
2023-02-17T03:12:56.875Z,101340.00
2023-02-17T03:16:59.661Z,101343.53
2023-02-17T03:21:07.864Z,101332.44
2023-02-17T03:25:12.284Z,101328.69
2023-02-17T03:29:15.614Z,101321.13
2023-02-17T03:33:18.597Z,101309.66
2023-02-17T03:37:21.413Z,101324.84
2023-02-17T03:41:26.479Z,101319.00
2023-02-17T03:45:29.302Z,101303.91
2023-02-17T03:49:32.343Z,101307.47
2023-02-17T03:53:35.115Z,101288.66
2023-02-17T03:57:39.344Z,101275.91
2023-02-17T04:01:42.211Z,101292.41
2023-02-17T04:05:45.715Z,101289.09
2023-02-17T04:09:48.592Z,101298.09
2023-02-17T04:13:52.859Z,101289.09
2023-02-17T04:17:55.649Z,101280.72
2023-02-17T04:21:58.490Z,101278.81
2023-02-17T04:26:01.739Z,101276.72
2023-02-17T04:30:07.342Z,101267.34
2023-02-17T04:34:10.187Z,101282.84
2023-02-17T04:38:13.329Z,101276.56
2023-02-17T04:42:16.201Z,101278.22
2023-02-17T04:46:20.438Z,101297.31
2023-02-17T04:50:23.693Z,101290.81
2023-02-17T04:54:26.571Z,101289.16
2023-02-17T04:58:29.432Z,101273.00
2023-02-17T05:02:33.746Z,101277.84
2023-02-17T05:06:36.558Z,101249.84
2023-02-17T05:10:40.605Z,101257.13
2023-02-17T05:14:43.520Z,101257.84
2023-02-17T05:18:47.922Z,101243.66
2023-02-17T05:22:50.734Z,101260.31
2023-02-17T05:26:53.545Z,101245.06
2023-02-17T05:30:56.790Z,101237.75
2023-02-17T05:35:01.066Z,101230.66
2023-02-17T05:39:03.879Z,101229.59
2023-02-17T05:43:06.704Z,101248.84
2023-02-17T05:47:09.574Z,101260.56
2023-02-17T05:51:17.169Z,101261.16
2023-02-17T05:55:20.002Z,101255.94
2023-02-17T05:59:22.839Z,101255.72
2023-02-17T06:03:25.831Z,101237.75
2023-02-17T06:07:29.997Z,101236.09
2023-02-17T06:11:33.372Z,101234.28
2023-02-17T06:15:36.226Z,101240.84
2023-02-17T06:19:39.059Z,101237.97
2023-02-17T06:23:43.193Z,101240.09
2023-02-17T06:27:46.043Z,101237.19
2023-02-17T06:31:48.939Z,101224.25
2023-02-17T06:35:52.679Z,101215.50
2023-02-17T06:39:56.812Z,101223.66
2023-02-17T06:43:59.590Z,101216.34
2023-02-17T06:48:02.366Z,101227.44
2023-02-17T06:52:05.427Z,101229.91
2023-02-17T06:56:09.833Z,101230.75
2023-02-17T07:00:13.753Z,101228.84
2023-02-17T07:04:16.523Z,101222.75
2023-02-17T07:08:19.358Z,101229.41
2023-02-17T07:12:23.558Z,101238.84
2023-02-17T07:16:26.465Z,101216.69
2023-02-17T07:20:29.292Z,101221.91
2023-02-17T07:24:33.926Z,101224.16
2023-02-17T07:28:39.335Z,101226.19
2023-02-17T07:32:42.200Z,101222.06
2023-02-17T07:36:45.099Z,101212.84
2023-02-17T07:40:47.919Z,101206.94
2023-02-17T07:44:52.060Z,101212.28
2023-02-17T07:48:54.924Z,101199.78
2023-02-17T07:52:57.761Z,101199.94
2023-02-17T07:57:01.083Z,101192.59
2023-02-17T08:01:08.085Z,101212.69
2023-02-17T08:05:10.990Z,101213.03
2023-02-17T08:09:31.405Z,101209.06
2023-02-17T08:13:34.206Z,101206.09
2023-02-17T08:17:38.594Z,101211.91
2023-02-17T08:21:41.365Z,101206.25
2023-02-17T08:25:44.186Z,101200.81
2023-02-17T08:29:47.309Z,101177.53
2023-02-17T08:33:51.858Z,101182.75
2023-02-17T08:37:54.657Z,101205.94
2023-02-17T08:41:57.508Z,101215.09
2023-02-17T08:46:00.367Z,101218.41
2023-02-17T08:50:05.946Z,101228.59
2023-02-17T08:54:11.051Z,101229.78
2023-02-17T08:58:13.931Z,101220.13
2023-02-17T09:02:17.751Z,101224.84
2023-02-17T09:06:22.440Z,101225.00
2023-02-17T09:10:25.437Z,101243.72
2023-02-17T09:14:28.630Z,101237.81
2023-02-17T09:18:31.585Z,101264.13
2023-02-17T09:22:35.949Z,101267.81
2023-02-17T09:26:39.077Z,101265.44
2023-02-17T09:30:42.356Z,101246.06
2023-02-17T09:34:50.594Z,101256.13
2023-02-17T09:38:55.094Z,101247.50
2023-02-17T09:42:57.942Z,101265.66
2023-02-17T09:47:06.560Z,101252.38
2023-02-17T09:51:16.861Z,101213.81
2023-02-17T09:55:26.440Z,101202.19
2023-02-17T09:59:36.945Z,101202.09
2023-02-17T10:03:44.258Z,101192.63
2023-02-17T10:07:52.180Z,101172.84
2023-02-17T10:12:03.124Z,101184.69
2023-02-17T10:16:10.756Z,101200.09
2023-02-17T10:20:16.664Z,101198.56
2023-02-17T10:24:19.522Z,101209.84
2023-02-17T10:28:36.490Z,101203.81
2023-02-17T10:32:51.361Z,101192.31
2023-02-17T10:37:00.164Z,101190.28
2023-02-17T10:41:06.637Z,101185.66
2023-02-17T10:45:16.497Z,101191.59
2023-02-17T10:49:26.559Z,101181.28
2023-02-17T10:53:32.974Z,101178.06
2023-02-17T10:57:39.519Z,101191.59
2023-02-17T11:01:44.922Z,101199.16
2023-02-17T11:05:54.679Z,101200.25
2023-02-17T11:10:01.706Z,101215.06
2023-02-17T11:14:13.579Z,101222.50
2023-02-17T11:18:22.730Z,101228.53
2023-02-17T11:22:38.582Z,101221.22
2023-02-17T11:26:41.579Z,101201.63
2023-02-17T11:30:52.052Z,101197.72
2023-02-17T11:35:04.723Z,101225.81
2023-02-17T11:39:18.650Z,101227.00
2023-02-17T11:43:21.507Z,101226.19
2023-02-17T11:47:35.040Z,101225.47
2023-02-17T11:51:52.644Z,101215.06
2023-02-17T11:56:07.656Z,101239.47
2023-02-17T12:00:20.671Z,101255.13
2023-02-17T12:04:27.614Z,101232.94
2023-02-17T12:08:46.361Z,101225.59
2023-02-17T12:13:06.306Z,101235.78
2023-02-17T12:17:18.106Z,101242.19
2023-02-17T12:21:32.138Z,101226.91
2023-02-17T12:25:38.878Z,101226.66
2023-02-17T12:30:00.404Z,101229.28
2023-02-17T12:34:14.117Z,101248.22
2023-02-17T12:38:20.197Z,101258.28
2023-02-17T12:42:28.463Z,101252.00
2023-02-17T12:46:36.150Z,101276.28
2023-02-17T12:50:43.634Z,101298.69
2023-02-17T12:54:51.022Z,101293.00
2023-02-17T12:58:59.918Z,101298.69
2023-02-17T13:03:04.609Z,101296.75
2023-02-17T13:07:36.478Z,101290.09
2023-02-17T13:11:39.369Z,101306.31
2023-02-17T13:15:45.647Z,101307.59
2023-02-17T13:19:49.233Z,101318.13
2023-02-17T13:24:00.549Z,101333.03
2023-02-17T13:28:16.939Z,101321.09
2023-02-17T13:32:28.847Z,101324.63
2023-02-17T13:36:40.722Z,101325.47
2023-02-17T13:40:44.701Z,101328.66
2023-02-17T13:44:49.057Z,101314.34
2023-02-17T13:49:03.278Z,101318.75
2023-02-17T13:53:22.384Z,101325.03
2023-02-17T13:57:28.735Z,101336.25
2023-02-17T14:01:31.638Z,101310.69
2023-02-17T14:05:43.481Z,101325.38
2023-02-17T14:09:53.974Z,101335.91
2023-02-17T14:13:58.760Z,101326.28
2023-02-17T14:18:01.589Z,101308.44
2023-02-17T14:22:06.797Z,101325.69
2023-02-17T14:26:16.094Z,101316.72
2023-02-17T14:30:30.242Z,101320.50
2023-02-17T14:34:35.502Z,101312.56
2023-02-17T14:38:42.421Z,101315.72
2023-02-17T14:42:45.693Z,101321.78
2023-02-17T14:46:48.606Z,101326.19
2023-02-17T14:50:53.963Z,101322.16
2023-02-17T14:55:00.482Z,101342.53
2023-02-17T14:59:03.473Z,101354.34
2023-02-17T15:03:06.305Z,101345.34
2023-02-17T15:07:12.794Z,101341.22
2023-02-17T15:11:21.148Z,101351.03
2023-02-17T15:15:24.394Z,101359.81
2023-02-17T15:19:27.228Z,101375.94
2023-02-17T15:23:32.802Z,101360.63
2023-02-17T15:27:36.951Z,101357.91
2023-02-17T15:31:39.896Z,101375.69
2023-02-17T15:35:43.267Z,101353.31
2023-02-17T15:39:46.288Z,101374.25
2023-02-17T15:43:51.170Z,101381.59
2023-02-17T15:48:03.177Z,101371.53
2023-02-17T15:52:06.241Z,101393.94
2023-02-17T15:56:20.396Z,101402.47
2023-02-17T16:00:26.928Z,101399.53
2023-02-17T16:04:30.055Z,101416.47
2023-02-17T16:08:32.875Z,101420.25
2023-02-17T16:12:35.755Z,101425.63
2023-02-17T16:16:39.997Z,101424.16
2023-02-17T16:20:42.935Z,101429.41
2023-02-17T16:24:45.761Z,101434.63
2023-02-17T16:28:48.673Z,101437.56
2023-02-17T16:32:52.897Z,101451.19
2023-02-17T16:36:58.527Z,101456.41
2023-02-17T16:41:01.310Z,101466.84
2023-02-17T16:45:04.488Z,101458.41
2023-02-17T16:49:20.341Z,101463.03
2023-02-17T16:53:23.155Z,101460.31
2023-02-17T16:57:26.374Z,101456.56
2023-02-17T17:01:29.283Z,101465.56
2023-02-17T17:05:34.230Z,101464.28
2023-02-17T17:09:37.256Z,101480.63
2023-02-17T17:13:40.041Z,101480.00
2023-02-17T17:17:46.848Z,101486.81
2023-02-17T17:21:51.288Z,101492.75
2023-02-17T17:25:55.135Z,101505.97
2023-02-17T17:29:58.845Z,101512.72
2023-02-17T17:34:01.796Z,101530.13
2023-02-17T17:38:06.509Z,101533.06
2023-02-17T17:42:10.867Z,101550.69
2023-02-17T17:46:16.538Z,101570.81
2023-02-17T17:50:21.851Z,101575.50
2023-02-17T17:54:25.995Z,101583.72
2023-02-17T17:58:31.413Z,101582.50
2023-02-17T18:02:34.249Z,101603.91
2023-02-17T18:06:40.646Z,101609.59
2023-02-17T18:10:45.541Z,101612.75
2023-02-17T18:14:52.378Z,101631.38
2023-02-17T18:18:56.092Z,101651.91
2023-02-17T18:22:58.893Z,101649.25
2023-02-17T18:27:03.034Z,101667.06
2023-02-17T18:31:08.521Z,101658.50
2023-02-17T18:35:11.454Z,101674.06
2023-02-17T18:39:14.319Z,101675.94
2023-02-17T18:43:18.534Z,101687.09
2023-02-17T18:47:21.313Z,101684.59
2023-02-17T18:51:26.734Z,101686.69
2023-02-17T18:55:29.643Z,101692.75
2023-02-17T18:59:34.675Z,101696.28
2023-02-17T19:03:37.509Z,101709.53
2023-02-17T19:07:40.570Z,101715.78
2023-02-17T19:11:43.371Z,101718.50
2023-02-17T19:15:47.525Z,101712.47
2023-02-17T19:19:51.656Z,101715.00
2023-02-17T19:23:55.039Z,101716.66
2023-02-17T19:27:57.842Z,101713.75
2023-02-17T19:32:03.643Z,101718.19
2023-02-17T19:36:10.960Z,101731.59
2023-02-17T19:40:13.766Z,101726.38
2023-02-17T19:44:17.430Z,101737.28
2023-02-17T19:48:24.168Z,101739.13
2023-02-17T19:52:28.029Z,101739.34
2023-02-17T19:56:35.273Z,101736.63
2023-02-17T20:00:38.188Z,101752.13
2023-02-17T20:04:42.605Z,101753.16
2023-02-17T20:08:47.477Z,101748.78
2023-02-17T20:12:50.406Z,101740.22
2023-02-17T20:16:55.566Z,101739.81
2023-02-17T20:20:59.760Z,101735.44
2023-02-17T20:25:02.756Z,101744.66
2023-02-17T20:29:05.720Z,101747.78
2023-02-17T20:33:08.526Z,101748.84
2023-02-17T20:37:13.068Z,101764.09
2023-02-17T20:41:19.545Z,101762.66
2023-02-17T20:45:22.703Z,101757.22
2023-02-17T20:49:26.048Z,101748.41
2023-02-17T20:53:30.647Z,101740.47
2023-02-17T20:57:33.829Z,101745.69
2023-02-17T21:01:37.347Z,101754.50
2023-02-17T21:05:40.590Z,101758.06
2023-02-17T21:09:44.792Z,101750.75
2023-02-17T21:13:48.940Z,101766.22
2023-02-17T21:17:51.852Z,101766.00
2023-02-17T21:21:54.666Z,101785.03
2023-02-17T21:25:58.866Z,101769.78
2023-02-17T21:30:01.808Z,101777.94
2023-02-17T21:34:05.649Z,101777.31
2023-02-17T21:38:10.260Z,101779.63
2023-02-17T21:42:14.636Z,101795.31
2023-02-17T21:46:17.507Z,101790.28
2023-02-17T21:50:21.326Z,101788.22
2023-02-17T21:54:24.193Z,101801.81
2023-02-17T21:58:29.025Z,101802.22
2023-02-17T22:02:31.807Z,101798.28
2023-02-17T22:06:36.641Z,101801.16
2023-02-17T22:10:40.014Z,101800.53
2023-02-17T22:14:44.186Z,101794.88
2023-02-17T22:18:47.002Z,101791.75
2023-02-17T22:22:49.871Z,101782.56
2023-02-17T22:26:52.717Z,101789.88
2023-02-17T22:30:58.449Z,101786.75
2023-02-17T22:35:01.324Z,101790.94
2023-02-17T22:39:05.514Z,101796.78
2023-02-17T22:43:08.534Z,101788.00
2023-02-17T22:47:12.771Z,101785.91
2023-02-17T22:51:17.402Z,101783.41
2023-02-17T22:55:20.250Z,101775.06
2023-02-17T22:59:23.320Z,101784.47
2023-02-17T23:03:27.575Z,101776.94
2023-02-17T23:07:30.411Z,101769.84
2023-02-17T23:11:54.649Z,101771.94
2023-02-17T23:15:58.627Z,101758.75
2023-02-17T23:20:02.861Z,101754.38
2023-02-17T23:24:06.152Z,101752.50
2023-02-17T23:28:10.871Z,101762.94
2023-02-17T23:32:13.655Z,101763.78
2023-02-17T23:36:17.886Z,101756.88
2023-02-17T23:40:21.009Z,101752.06
2023-02-17T23:44:23.816Z,101753.53
2023-02-17T23:48:26.654Z,101747.25
2023-02-17T23:52:30.813Z,101746.03
2023-02-17T23:56:35.778Z,101742.06
